sensor_id;sensor_type;location;lat;lon;timestamp;pressure;altitude;pressure_sealevel;temperature;humidity
58092;BME280;43896;48.178;11.578;2023-12-07T00:02:06;96041.31;;;3.91;67.33
58092;BME280;43896;48.178;11.578;2023-12-07T00:04:31;95979.72;;;3.44;67.92
58092;BME280;43896;48.178;11.578;2023-12-07T00:06:57;95986.41;;;3.59;67.46
58092;BME280;43896;48.178;11.578;2023-12-07T00:09:22;96010.09;;;3.67;67.99
58092;BME280;43896;48.178;11.578;2023-12-07T00:11:47;96060.72;;;3.99;68.33
58092;BME280;43896;48.178;11.578;2023-12-07T00:14:13;96005.38;;;3.61;67.87
58092;BME280;43896;48.178;11.578;2023-12-07T00:16:38;95969.28;;;3.32;68.44
58092;BME280;43896;48.178;11.578;2023-12-07T00:19:04;95992.56;;;3.34;68.50
58092;BME280;43896;48.178;11.578;2023-12-07T00:21:29;95994.72;;;3.40;68.12
58092;BME280;43896;48.178;11.578;2023-12-07T00:23:54;95983.94;;;3.33;68.11
58092;BME280;43896;48.178;11.578;2023-12-07T00:26:20;96036.31;;;3.64;68.27
58092;BME280;43896;48.178;11.578;2023-12-07T00:28:46;95998.56;;;3.47;68.32
58092;BME280;43896;48.178;11.578;2023-12-07T00:31:11;96041.16;;;3.82;67.85
58092;BME280;43896;48.178;11.578;2023-12-07T00:33:37;96003.81;;;3.59;67.59
58092;BME280;43896;48.178;11.578;2023-12-07T00:36:02;96033.06;;;3.73;68.23
58092;BME280;43896;48.178;11.578;2023-12-07T00:38:28;96076.00;;;4.03;67.95
58092;BME280;43896;48.178;11.578;2023-12-07T00:40:54;96055.09;;;3.81;68.39
58092;BME280;43896;48.178;11.578;2023-12-07T00:43:19;95991.91;;;3.43;68.12
58092;BME280;43896;48.178;11.578;2023-12-07T00:45:44;96012.03;;;3.52;68.29
58092;BME280;43896;48.178;11.578;2023-12-07T00:48:10;96085.81;;;4.00;68.31
58092;BME280;43896;48.178;11.578;2023-12-07T00:50:35;96028.31;;;3.67;67.46
58092;BME280;43896;48.178;11.578;2023-12-07T00:53:01;96002.91;;;3.47;68.07
58092;BME280;43896;48.178;11.578;2023-12-07T00:55:26;96038.78;;;3.54;69.22
58092;BME280;43896;48.178;11.578;2023-12-07T00:57:52;96017.84;;;2.82;69.97
58092;BME280;43896;48.178;11.578;2023-12-07T01:00:17;95983.75;;;2.87;69.46
58092;BME280;43896;48.178;11.578;2023-12-07T01:02:43;96024.41;;;3.25;69.02
58092;BME280;43896;48.178;11.578;2023-12-07T01:05:09;96020.22;;;3.35;69.11
58092;BME280;43896;48.178;11.578;2023-12-07T01:07:34;96092.03;;;3.86;69.06
58092;BME280;43896;48.178;11.578;2023-12-07T01:10:00;96096.69;;;3.07;69.96
58092;BME280;43896;48.178;11.578;2023-12-07T01:12:25;96096.44;;;3.35;70.06
58092;BME280;43896;48.178;11.578;2023-12-07T01:14:50;96013.19;;;2.74;69.74
58092;BME280;43896;48.178;11.578;2023-12-07T01:17:16;96052.72;;;3.04;70.20
58092;BME280;43896;48.178;11.578;2023-12-07T01:19:43;96045.94;;;3.14;69.68
58092;BME280;43896;48.178;11.578;2023-12-07T01:22:08;96062.56;;;3.24;68.92
58092;BME280;43896;48.178;11.578;2023-12-07T01:24:33;96082.59;;;3.48;68.71
58092;BME280;43896;48.178;11.578;2023-12-07T01:26:59;96122.66;;;3.69;68.51
58092;BME280;43896;48.178;11.578;2023-12-07T01:29:24;95992.25;;;2.89;68.43
58092;BME280;43896;48.178;11.578;2023-12-07T01:31:50;96095.19;;;3.41;68.92
58092;BME280;43896;48.178;11.578;2023-12-07T01:34:17;96139.84;;;3.59;68.90
58092;BME280;43896;48.178;11.578;2023-12-07T01:36:43;96148.84;;;3.42;69.22
58092;BME280;43896;48.178;11.578;2023-12-07T01:39:09;96139.81;;;3.09;69.33
58092;BME280;43896;48.178;11.578;2023-12-07T01:41:38;96052.34;;;2.71;69.83
58092;BME280;43896;48.178;11.578;2023-12-07T01:44:04;96148.94;;;3.41;69.06
58092;BME280;43896;48.178;11.578;2023-12-07T01:46:29;96075.38;;;3.02;69.25
58092;BME280;43896;48.178;11.578;2023-12-07T01:48:55;96145.53;;;3.27;69.71
58092;BME280;43896;48.178;11.578;2023-12-07T01:51:21;96148.84;;;3.29;69.43
58092;BME280;43896;48.178;11.578;2023-12-07T01:53:47;96070.94;;;2.91;69.71
58092;BME280;43896;48.178;11.578;2023-12-07T01:56:14;96133.16;;;3.31;69.11
58092;BME280;43896;48.178;11.578;2023-12-07T01:58:39;96093.88;;;2.97;69.16
58092;BME280;43896;48.178;11.578;2023-12-07T02:01:05;96114.56;;;2.98;69.56
58092;BME280;43896;48.178;11.578;2023-12-07T02:03:31;96142.94;;;3.27;69.69
58092;BME280;43896;48.178;11.578;2023-12-07T02:05:58;96157.97;;;3.35;69.48
58092;BME280;43896;48.178;11.578;2023-12-07T02:08:24;96144.91;;;3.24;69.29
58092;BME280;43896;48.178;11.578;2023-12-07T02:10:50;96011.66;;;2.46;68.69
58092;BME280;43896;48.178;11.578;2023-12-07T02:13:18;96071.38;;;2.72;69.06
58092;BME280;43896;48.178;11.578;2023-12-07T02:15:43;96067.41;;;2.66;69.48
58092;BME280;43896;48.178;11.578;2023-12-07T02:18:23;96154.78;;;3.06;70.28
58092;BME280;43896;48.178;11.578;2023-12-07T02:20:59;96162.81;;;3.03;70.50
58092;BME280;43896;48.178;11.578;2023-12-07T02:23:28;96113.72;;;2.85;70.31
58092;BME280;43896;48.178;11.578;2023-12-07T02:29:13;96069.47;;;2.48;70.53
58092;BME280;43896;48.178;11.578;2023-12-07T02:31:39;96176.94;;;3.24;69.79
58092;BME280;43896;48.178;11.578;2023-12-07T02:34:05;96118.63;;;3.03;69.09
58092;BME280;43896;48.178;11.578;2023-12-07T02:36:32;96173.41;;;3.25;69.46
58092;BME280;43896;48.178;11.578;2023-12-07T02:38:59;96170.88;;;3.36;69.35
58092;BME280;43896;48.178;11.578;2023-12-07T02:41:30;96073.31;;;2.68;68.26
58092;BME280;43896;48.178;11.578;2023-12-07T02:43:57;96178.75;;;2.84;70.26
58092;BME280;43896;48.178;11.578;2023-12-07T02:46:24;96168.28;;;3.11;69.28
58092;BME280;43896;48.178;11.578;2023-12-07T02:48:49;96175.25;;;3.23;68.69
58092;BME280;43896;48.178;11.578;2023-12-07T02:51:15;96130.78;;;2.89;68.58
58092;BME280;43896;48.178;11.578;2023-12-07T02:53:40;96171.31;;;3.17;68.57
58092;BME280;43896;48.178;11.578;2023-12-07T02:56:06;96160.69;;;3.08;67.96
58092;BME280;43896;48.178;11.578;2023-12-07T02:58:32;96110.19;;;2.60;68.87
58092;BME280;43896;48.178;11.578;2023-12-07T03:00:57;96160.31;;;3.01;68.63
58092;BME280;43896;48.178;11.578;2023-12-07T03:03:22;96101.25;;;2.65;68.76
58092;BME280;43896;48.178;11.578;2023-12-07T03:05:48;96095.66;;;2.58;68.56
58092;BME280;43896;48.178;11.578;2023-12-07T03:08:13;96088.38;;;2.50;68.35
58092;BME280;43896;48.178;11.578;2023-12-07T03:10:39;96109.38;;;2.60;68.15
58092;BME280;43896;48.178;11.578;2023-12-07T03:13:04;96194.97;;;2.74;69.22
58092;BME280;43896;48.178;11.578;2023-12-07T03:15:29;96159.84;;;2.81;69.25
58092;BME280;43896;48.178;11.578;2023-12-07T03:17:55;96072.38;;;2.31;68.67
58092;BME280;43896;48.178;11.578;2023-12-07T03:20:20;96196.34;;;2.93;68.70
58092;BME280;43896;48.178;11.578;2023-12-07T03:22:46;96149.13;;;2.73;68.95
58092;BME280;43896;48.178;11.578;2023-12-07T03:25:11;96100.69;;;2.34;69.49
58092;BME280;43896;48.178;11.578;2023-12-07T03:27:37;96195.00;;;3.13;68.20
58092;BME280;43896;48.178;11.578;2023-12-07T03:30:03;96203.84;;;3.10;68.21
58092;BME280;43896;48.178;11.578;2023-12-07T03:32:28;96145.94;;;2.83;68.02
58092;BME280;43896;48.178;11.578;2023-12-07T03:34:53;96121.00;;;2.67;67.96
58092;BME280;43896;48.178;11.578;2023-12-07T03:37:19;96193.53;;;2.83;69.03
58092;BME280;43896;48.178;11.578;2023-12-07T03:39:44;96126.81;;;2.58;69.16
58092;BME280;43896;48.178;11.578;2023-12-07T03:42:10;96101.06;;;2.55;67.72
58092;BME280;43896;48.178;11.578;2023-12-07T03:44:35;96204.06;;;3.20;67.74
58092;BME280;43896;48.178;11.578;2023-12-07T03:47:01;96198.44;;;3.26;67.71
58092;BME280;43896;48.178;11.578;2023-12-07T03:49:26;96103.97;;;2.63;67.54
58092;BME280;43896;48.178;11.578;2023-12-07T03:51:51;96201.03;;;3.26;67.28
58092;BME280;43896;48.178;11.578;2023-12-07T03:54:17;96193.97;;;3.28;67.02
58092;BME280;43896;48.178;11.578;2023-12-07T03:56:42;96113.63;;;2.87;66.86
58092;BME280;43896;48.178;11.578;2023-12-07T03:59:08;96134.00;;;2.93;66.66
58092;BME280;43896;48.178;11.578;2023-12-07T04:01:33;96133.81;;;2.96;66.77
58092;BME280;43896;48.178;11.578;2023-12-07T04:03:59;96153.84;;;3.07;66.53
58092;BME280;43896;48.178;11.578;2023-12-07T04:06:25;96207.09;;;3.27;66.71
58092;BME280;43896;48.178;11.578;2023-12-07T04:08:51;96175.47;;;3.07;66.59
58092;BME280;43896;48.178;11.578;2023-12-07T04:11:17;96073.31;;;2.55;66.22
58092;BME280;43896;48.178;11.578;2023-12-07T04:13:43;96127.97;;;2.79;65.79
58092;BME280;43896;48.178;11.578;2023-12-07T04:16:09;96167.88;;;3.04;66.48
58092;BME280;43896;48.178;11.578;2023-12-07T04:18:35;96201.66;;;3.30;65.99
58092;BME280;43896;48.178;11.578;2023-12-07T04:21:00;96129.13;;;2.88;65.74
58092;BME280;43896;48.178;11.578;2023-12-07T04:23:26;96159.88;;;2.94;66.16
58092;BME280;43896;48.178;11.578;2023-12-07T04:25:51;96206.34;;;3.25;65.99
58092;BME280;43896;48.178;11.578;2023-12-07T04:28:17;96194.06;;;3.14;66.15
58092;BME280;43896;48.178;11.578;2023-12-07T04:30:42;96189.00;;;2.99;66.19
58092;BME280;43896;48.178;11.578;2023-12-07T04:33:07;96222.03;;;3.23;66.33
58092;BME280;43896;48.178;11.578;2023-12-07T04:35:34;96116.06;;;2.24;66.67
58092;BME280;43896;48.178;11.578;2023-12-07T04:37:59;96200.91;;;2.49;68.27
58092;BME280;43896;48.178;11.578;2023-12-07T04:40:25;96142.88;;;2.37;67.27
58092;BME280;43896;48.178;11.578;2023-12-07T04:42:51;96232.00;;;3.04;67.34
58092;BME280;43896;48.178;11.578;2023-12-07T04:45:16;96152.66;;;2.59;66.68
58092;BME280;43896;48.178;11.578;2023-12-07T04:47:42;96170.78;;;2.74;66.62
58092;BME280;43896;48.178;11.578;2023-12-07T04:50:07;96243.44;;;3.14;65.97
58092;BME280;43896;48.178;11.578;2023-12-07T04:52:35;96243.44;;;3.14;66.06
58092;BME280;43896;48.178;11.578;2023-12-07T04:55:01;96238.34;;;3.12;65.65
58092;BME280;43896;48.178;11.578;2023-12-07T04:57:26;96214.97;;;2.99;65.59
58092;BME280;43896;48.178;11.578;2023-12-07T04:59:51;96234.94;;;3.12;66.65
58092;BME280;43896;48.178;11.578;2023-12-07T05:02:17;96231.09;;;3.05;65.99
58092;BME280;43896;48.178;11.578;2023-12-07T05:04:43;96192.81;;;2.81;66.16
58092;BME280;43896;48.178;11.578;2023-12-07T05:07:11;96185.84;;;2.81;66.36
58092;BME280;43896;48.178;11.578;2023-12-07T05:09:36;96130.13;;;2.20;66.71
58092;BME280;43896;48.178;11.578;2023-12-07T05:12:02;96192.66;;;2.70;66.07
58092;BME280;43896;48.178;11.578;2023-12-07T05:14:27;96175.09;;;2.60;66.10
58092;BME280;43896;48.178;11.578;2023-12-07T05:16:52;96165.63;;;2.59;65.78
58092;BME280;43896;48.178;11.578;2023-12-07T05:19:20;96234.31;;;3.08;65.79
58092;BME280;43896;48.178;11.578;2023-12-07T05:21:46;96235.31;;;3.06;65.41
58092;BME280;43896;48.178;11.578;2023-12-07T05:24:12;96123.47;;;2.43;65.39
58092;BME280;43896;48.178;11.578;2023-12-07T05:26:37;96200.19;;;2.87;65.27
58092;BME280;43896;48.178;11.578;2023-12-07T05:29:03;96221.50;;;3.05;65.38
58092;BME280;43896;48.178;11.578;2023-12-07T05:31:28;96200.81;;;2.91;65.26
58092;BME280;43896;48.178;11.578;2023-12-07T05:33:55;96222.63;;;2.88;65.01
58092;BME280;43896;48.178;11.578;2023-12-07T05:36:20;96231.19;;;3.03;64.87
58092;BME280;43896;48.178;11.578;2023-12-07T05:38:45;96189.59;;;2.77;64.54
58092;BME280;43896;48.178;11.578;2023-12-07T05:41:11;96197.47;;;2.89;64.54
58092;BME280;43896;48.178;11.578;2023-12-07T05:43:40;96224.53;;;3.12;64.29
58092;BME280;43896;48.178;11.578;2023-12-07T05:46:07;96168.38;;;2.71;64.08
58092;BME280;43896;48.178;11.578;2023-12-07T05:48:32;96140.19;;;2.52;63.79
58092;BME280;43896;48.178;11.578;2023-12-07T05:50:57;96195.94;;;2.86;63.84
58092;BME280;43896;48.178;11.578;2023-12-07T05:53:23;96186.56;;;2.84;63.67
58092;BME280;43896;48.178;11.578;2023-12-07T05:55:49;96219.75;;;3.06;63.35
58092;BME280;43896;48.178;11.578;2023-12-07T05:58:14;96195.41;;;2.81;63.86
58092;BME280;43896;48.178;11.578;2023-12-07T06:00:40;96192.91;;;2.79;64.17
58092;BME280;43896;48.178;11.578;2023-12-07T06:03:05;96217.47;;;3.01;63.74
58092;BME280;43896;48.178;11.578;2023-12-07T06:05:30;96187.31;;;2.86;63.62
58092;BME280;43896;48.178;11.578;2023-12-07T06:07:56;96219.22;;;3.00;63.17
58092;BME280;43896;48.178;11.578;2023-12-07T06:10:21;96190.19;;;2.81;63.89
58092;BME280;43896;48.178;11.578;2023-12-07T06:12:47;96225.13;;;2.90;64.03
58092;BME280;43896;48.178;11.578;2023-12-07T06:15:12;96219.84;;;2.91;63.50
58092;BME280;43896;48.178;11.578;2023-12-07T06:17:37;96218.38;;;2.87;63.52
58092;BME280;43896;48.178;11.578;2023-12-07T06:20:03;96220.38;;;2.96;63.84
58092;BME280;43896;48.178;11.578;2023-12-07T06:22:28;96221.63;;;3.04;63.48
58092;BME280;43896;48.178;11.578;2023-12-07T06:24:54;96220.69;;;3.05;63.04
58092;BME280;43896;48.178;11.578;2023-12-07T06:27:20;96211.00;;;2.94;62.98
58092;BME280;43896;48.178;11.578;2023-12-07T06:29:45;96188.97;;;2.87;62.97
58092;BME280;43896;48.178;11.578;2023-12-07T06:32:10;96224.94;;;3.06;62.73
58092;BME280;43896;48.178;11.578;2023-12-07T06:34:40;96228.09;;;2.71;63.83
58092;BME280;43896;48.178;11.578;2023-12-07T06:37:05;96231.56;;;2.97;62.99
58092;BME280;43896;48.178;11.578;2023-12-07T06:39:31;96226.72;;;3.05;62.44
58092;BME280;43896;48.178;11.578;2023-12-07T06:41:56;96236.47;;;3.14;62.06
58092;BME280;43896;48.178;11.578;2023-12-07T06:44:21;96240.56;;;3.18;62.22
58092;BME280;43896;48.178;11.578;2023-12-07T06:46:47;96234.63;;;3.16;62.03
58092;BME280;43896;48.178;11.578;2023-12-07T06:49:12;96215.88;;;2.98;62.23
58092;BME280;43896;48.178;11.578;2023-12-07T06:51:38;96235.22;;;2.94;62.59
58092;BME280;43896;48.178;11.578;2023-12-07T06:54:04;96228.63;;;2.76;62.82
58092;BME280;43896;48.178;11.578;2023-12-07T06:56:29;96212.06;;;2.51;62.97
58092;BME280;43896;48.178;11.578;2023-12-07T06:58:54;96225.69;;;2.55;63.28
58092;BME280;43896;48.178;11.578;2023-12-07T07:01:20;96237.63;;;2.57;63.62
58092;BME280;43896;48.178;11.578;2023-12-07T07:03:45;96239.50;;;2.68;63.55
58092;BME280;43896;48.178;11.578;2023-12-07T07:06:11;96246.19;;;2.85;62.84
58092;BME280;43896;48.178;11.578;2023-12-07T07:08:36;96237.16;;;2.78;63.03
58092;BME280;43896;48.178;11.578;2023-12-07T07:11:01;96206.34;;;2.59;62.87
58092;BME280;43896;48.178;11.578;2023-12-07T07:13:28;96246.81;;;2.89;62.67
58092;BME280;43896;48.178;11.578;2023-12-07T07:15:54;96234.56;;;2.78;62.68
58092;BME280;43896;48.178;11.578;2023-12-07T07:18:20;96215.84;;;2.73;62.49
58092;BME280;43896;48.178;11.578;2023-12-07T07:20:49;96172.69;;;2.44;62.32
58092;BME280;43896;48.178;11.578;2023-12-07T07:23:14;96245.28;;;2.99;62.28
58092;BME280;43896;48.178;11.578;2023-12-07T07:25:39;96250.38;;;3.00;62.48
58092;BME280;43896;48.178;11.578;2023-12-07T07:28:05;96225.50;;;2.71;62.98
58092;BME280;43896;48.178;11.578;2023-12-07T07:30:30;96239.22;;;2.73;62.95
58092;BME280;43896;48.178;11.578;2023-12-07T07:32:56;96242.97;;;2.69;63.13
58092;BME280;43896;48.178;11.578;2023-12-07T07:35:21;96259.25;;;2.71;63.45
58092;BME280;43896;48.178;11.578;2023-12-07T07:37:47;96229.91;;;2.56;63.67
58092;BME280;43896;48.178;11.578;2023-12-07T07:40:12;96223.75;;;2.44;63.66
58092;BME280;43896;48.178;11.578;2023-12-07T07:42:38;96256.47;;;2.74;63.68
58092;BME280;43896;48.178;11.578;2023-12-07T07:45:07;96240.94;;;2.59;63.41
58092;BME280;43896;48.178;11.578;2023-12-07T07:47:33;96258.34;;;2.72;64.07
58092;BME280;43896;48.178;11.578;2023-12-07T07:49:59;96240.03;;;2.73;63.08
58092;BME280;43896;48.178;11.578;2023-12-07T07:52:24;96241.09;;;2.84;62.72
58092;BME280;43896;48.178;11.578;2023-12-07T07:54:50;96240.31;;;3.09;61.81
58092;BME280;43896;48.178;11.578;2023-12-07T07:57:15;96251.06;;;3.17;62.26
58092;BME280;43896;48.178;11.578;2023-12-07T07:59:40;96232.44;;;3.10;61.41
58092;BME280;43896;48.178;11.578;2023-12-07T08:02:06;96227.06;;;3.39;60.90
58092;BME280;43896;48.178;11.578;2023-12-07T08:04:31;96232.25;;;4.98;56.42
58092;BME280;43896;48.178;11.578;2023-12-07T08:06:57;96244.75;;;6.64;52.16
58092;BME280;43896;48.178;11.578;2023-12-07T08:09:22;96257.56;;;7.53;49.39
58092;BME280;43896;48.178;11.578;2023-12-07T08:11:48;96204.00;;;6.94;50.32
58092;BME280;43896;48.178;11.578;2023-12-07T08:14:13;96249.09;;;6.43;52.12
58092;BME280;43896;48.178;11.578;2023-12-07T08:16:43;96153.66;;;5.61;52.50
58092;BME280;43896;48.178;11.578;2023-12-07T08:19:09;96240.69;;;5.94;53.46
58092;BME280;43896;48.178;11.578;2023-12-07T08:21:34;96238.56;;;5.76;53.59
58092;BME280;43896;48.178;11.578;2023-12-07T08:24:00;96221.97;;;5.89;52.69
58092;BME280;43896;48.178;11.578;2023-12-07T08:26:25;96215.53;;;6.15;53.18
58092;BME280;43896;48.178;11.578;2023-12-07T08:28:53;96238.50;;;6.55;52.27
58092;BME280;43896;48.178;11.578;2023-12-07T08:31:19;96239.94;;;6.81;51.98
58092;BME280;43896;48.178;11.578;2023-12-07T08:33:45;96219.75;;;6.83;50.72
58092;BME280;43896;48.178;11.578;2023-12-07T08:36:10;96253.81;;;6.92;51.77
58092;BME280;43896;48.178;11.578;2023-12-07T08:38:35;96226.13;;;6.57;52.16
58092;BME280;43896;48.178;11.578;2023-12-07T08:41:01;96227.06;;;6.89;51.27
58092;BME280;43896;48.178;11.578;2023-12-07T08:43:27;96212.03;;;7.23;49.92
58092;BME280;43896;48.178;11.578;2023-12-07T08:45:53;96237.66;;;7.72;49.60
58092;BME280;43896;48.178;11.578;2023-12-07T08:48:19;96236.56;;;7.74;49.91
58092;BME280;43896;48.178;11.578;2023-12-07T08:50:44;96212.34;;;7.82;48.69
58092;BME280;43896;48.178;11.578;2023-12-07T08:53:10;96228.84;;;8.03;48.38
58092;BME280;43896;48.178;11.578;2023-12-07T08:55:35;96220.50;;;7.88;48.88
58092;BME280;43896;48.178;11.578;2023-12-07T08:58:00;96229.41;;;7.76;48.01
58092;BME280;43896;48.178;11.578;2023-12-07T09:00:28;96225.84;;;7.77;46.84
58092;BME280;43896;48.178;11.578;2023-12-07T09:02:53;96241.59;;;7.87;47.35
58092;BME280;43896;48.178;11.578;2023-12-07T09:05:19;96220.25;;;7.92;45.46
58092;BME280;43896;48.178;11.578;2023-12-07T09:07:45;96197.78;;;7.89;46.48
58092;BME280;43896;48.178;11.578;2023-12-07T09:10:10;96238.91;;;8.49;44.09
58092;BME280;43896;48.178;11.578;2023-12-07T09:12:36;96170.34;;;8.43;42.42
58092;BME280;43896;48.178;11.578;2023-12-07T09:15:02;96227.22;;;9.01;41.48
58092;BME280;43896;48.178;11.578;2023-12-07T09:17:28;96179.47;;;9.08;41.81
58092;BME280;43896;48.178;11.578;2023-12-07T09:19:54;96203.31;;;9.14;40.40
58092;BME280;43896;48.178;11.578;2023-12-07T09:22:19;96235.53;;;9.73;39.79
58092;BME280;43896;48.178;11.578;2023-12-07T09:24:45;96225.59;;;10.05;39.31
58092;BME280;43896;48.178;11.578;2023-12-07T09:27:13;96214.28;;;10.04;39.83
58092;BME280;43896;48.178;11.578;2023-12-07T09:29:38;96212.66;;;10.21;38.47
58092;BME280;43896;48.178;11.578;2023-12-07T09:32:04;96225.22;;;10.27;38.12
58092;BME280;43896;48.178;11.578;2023-12-07T09:34:29;96201.44;;;10.19;37.46
58092;BME280;43896;48.178;11.578;2023-12-07T09:37:10;96218.94;;;10.66;37.87
58092;BME280;43896;48.178;11.578;2023-12-07T09:39:36;96199.81;;;10.64;36.72
58092;BME280;43896;48.178;11.578;2023-12-07T09:42:01;96213.44;;;10.59;35.70
58092;BME280;43896;48.178;11.578;2023-12-07T09:44:27;96217.25;;;10.83;35.01
58092;BME280;43896;48.178;11.578;2023-12-07T09:46:53;96223.91;;;9.76;35.73
58092;BME280;43896;48.178;11.578;2023-12-07T09:49:18;96200.34;;;10.31;34.87
58092;BME280;43896;48.178;11.578;2023-12-07T09:51:45;96207.09;;;10.34;35.53
58092;BME280;43896;48.178;11.578;2023-12-07T09:54:11;96209.59;;;10.26;35.12
58092;BME280;43896;48.178;11.578;2023-12-07T09:56:37;96204.88;;;10.02;34.70
58092;BME280;43896;48.178;11.578;2023-12-07T09:59:02;96169.41;;;9.50;35.92
58092;BME280;43896;48.178;11.578;2023-12-07T10:01:29;96199.22;;;9.59;35.65
58092;BME280;43896;48.178;11.578;2023-12-07T10:04:17;96202.56;;;9.51;34.92
58092;BME280;43896;48.178;11.578;2023-12-07T10:06:44;96183.41;;;9.31;35.05
58092;BME280;43896;48.178;11.578;2023-12-07T10:09:10;96164.28;;;9.01;34.42
58092;BME280;43896;48.178;11.578;2023-12-07T10:11:36;96189.66;;;9.11;34.72
58092;BME280;43896;48.178;11.578;2023-12-07T10:14:02;96166.63;;;8.85;36.26
58092;BME280;43896;48.178;11.578;2023-12-07T10:16:27;96189.16;;;8.68;35.62
58092;BME280;43896;48.178;11.578;2023-12-07T10:18:52;96183.69;;;8.31;37.37
58092;BME280;43896;48.178;11.578;2023-12-07T10:21:31;96192.06;;;8.24;36.99
58092;BME280;43896;48.178;11.578;2023-12-07T10:23:57;96161.75;;;8.41;36.08
58092;BME280;43896;48.178;11.578;2023-12-07T10:26:22;96196.44;;;8.74;36.42
58092;BME280;43896;48.178;11.578;2023-12-07T10:28:51;96191.34;;;8.73;36.77
58092;BME280;43896;48.178;11.578;2023-12-07T10:31:20;96187.06;;;8.91;34.32
58092;BME280;43896;48.178;11.578;2023-12-07T10:33:51;96188.56;;;9.04;33.70
58092;BME280;43896;48.178;11.578;2023-12-07T10:36:17;96178.38;;;8.91;33.64
58092;BME280;43896;48.178;11.578;2023-12-07T10:38:42;96177.19;;;6.81;37.55
58092;BME280;43896;48.178;11.578;2023-12-07T10:41:12;96174.13;;;8.10;36.64
58092;BME280;43896;48.178;11.578;2023-12-07T10:43:44;96118.59;;;8.36;34.22
58092;BME280;43896;48.178;11.578;2023-12-07T10:46:15;96174.03;;;9.09;34.70
58092;BME280;43896;48.178;11.578;2023-12-07T10:48:47;96141.50;;;8.82;33.81
58092;BME280;43896;48.178;11.578;2023-12-07T10:51:34;96170.31;;;7.22;35.65
58092;BME280;43896;48.178;11.578;2023-12-07T10:54:03;96149.28;;;6.81;37.30
58092;BME280;43896;48.178;11.578;2023-12-07T10:56:36;96148.44;;;6.60;37.41
58092;BME280;43896;48.178;11.578;2023-12-07T10:59:06;96138.19;;;6.03;38.02
58092;BME280;43896;48.178;11.578;2023-12-07T11:01:32;96149.31;;;6.49;38.25
58092;BME280;43896;48.178;11.578;2023-12-07T11:03:59;96123.91;;;7.95;35.80
58092;BME280;43896;48.178;11.578;2023-12-07T11:06:26;96149.06;;;8.95;34.26
58092;BME280;43896;48.178;11.578;2023-12-07T11:08:57;96138.22;;;9.37;33.96
58092;BME280;43896;48.178;11.578;2023-12-07T11:11:35;96145.34;;;9.83;34.10
58092;BME280;43896;48.178;11.578;2023-12-07T11:14:09;96134.72;;;9.47;33.75
58092;BME280;43896;48.178;11.578;2023-12-07T11:16:38;96062.91;;;9.00;33.12
58092;BME280;43896;48.178;11.578;2023-12-07T11:19:05;96135.00;;;7.68;35.34
58092;BME280;43896;48.178;11.578;2023-12-07T11:21:31;96144.63;;;6.85;36.79
58092;BME280;43896;48.178;11.578;2023-12-07T11:23:59;96140.78;;;7.31;35.71
58092;BME280;43896;48.178;11.578;2023-12-07T11:26:27;96049.78;;;7.04;35.31
58092;BME280;43896;48.178;11.578;2023-12-07T11:28:54;96122.59;;;7.60;35.61
58092;BME280;43896;48.178;11.578;2023-12-07T11:31:21;96128.47;;;7.22;36.76
58092;BME280;43896;48.178;11.578;2023-12-07T11:33:47;96123.03;;;7.35;35.82
58092;BME280;43896;48.178;11.578;2023-12-07T11:36:13;96084.31;;;9.06;32.49
58092;BME280;43896;48.178;11.578;2023-12-07T11:39:19;96111.66;;;10.24;32.49
58092;BME280;43896;48.178;11.578;2023-12-07T11:41:45;96097.56;;;11.05;30.05
58092;BME280;43896;48.178;11.578;2023-12-07T11:44:17;96085.75;;;11.09;29.97
58092;BME280;43896;48.178;11.578;2023-12-07T11:46:43;96082.97;;;9.39;32.96
58092;BME280;43896;48.178;11.578;2023-12-07T11:49:08;96096.03;;;9.49;33.66
58092;BME280;43896;48.178;11.578;2023-12-07T11:51:36;96086.66;;;9.09;33.16
58092;BME280;43896;48.178;11.578;2023-12-07T11:54:01;96087.56;;;8.60;34.47
58092;BME280;43896;48.178;11.578;2023-12-07T11:56:26;96082.72;;;6.85;37.36
58092;BME280;43896;48.178;11.578;2023-12-07T11:58:52;96102.28;;;6.28;38.26
58092;BME280;43896;48.178;11.578;2023-12-07T12:01:17;96104.44;;;6.86;36.78
58092;BME280;43896;48.178;11.578;2023-12-07T12:03:43;96097.25;;;8.60;33.93
58092;BME280;43896;48.178;11.578;2023-12-07T12:06:08;96082.84;;;8.25;33.82
58092;BME280;43896;48.178;11.578;2023-12-07T12:08:35;96074.19;;;6.62;36.25
58092;BME280;43896;48.178;11.578;2023-12-07T12:11:01;96099.16;;;6.34;37.72
58092;BME280;43896;48.178;11.578;2023-12-07T12:13:28;96069.69;;;6.11;37.01
58092;BME280;43896;48.178;11.578;2023-12-07T12:15:53;96102.16;;;6.29;36.55
58092;BME280;43896;48.178;11.578;2023-12-07T12:18:21;96104.47;;;6.44;36.90
58092;BME280;43896;48.178;11.578;2023-12-07T12:20:46;96091.50;;;6.21;36.88
58092;BME280;43896;48.178;11.578;2023-12-07T12:23:12;96082.41;;;5.26;38.39
58092;BME280;43896;48.178;11.578;2023-12-07T12:25:37;96082.16;;;6.82;37.78
58092;BME280;43896;48.178;11.578;2023-12-07T12:28:04;96072.97;;;7.18;37.04
58092;BME280;43896;48.178;11.578;2023-12-07T12:30:31;96078.13;;;6.56;37.90
58092;BME280;43896;48.178;11.578;2023-12-07T12:32:57;96041.50;;;5.93;39.49
58092;BME280;43896;48.178;11.578;2023-12-07T12:35:23;96034.28;;;5.97;38.64
58092;BME280;43896;48.178;11.578;2023-12-07T12:37:49;96045.41;;;5.88;39.83
58092;BME280;43896;48.178;11.578;2023-12-07T12:40:18;96064.38;;;6.01;39.84
58092;BME280;43896;48.178;11.578;2023-12-07T12:42:52;96064.94;;;6.16;39.51
58092;BME280;43896;48.178;11.578;2023-12-07T12:45:18;96071.72;;;6.07;39.31
58092;BME280;43896;48.178;11.578;2023-12-07T12:47:44;96073.03;;;6.01;40.05
58092;BME280;43896;48.178;11.578;2023-12-07T12:50:11;96054.34;;;5.74;38.77
58092;BME280;43896;48.178;11.578;2023-12-07T12:52:39;96022.03;;;5.86;38.24
58092;BME280;43896;48.178;11.578;2023-12-07T12:55:09;96045.69;;;5.85;38.16
58092;BME280;43896;48.178;11.578;2023-12-07T12:57:35;96064.34;;;5.57;38.78
58092;BME280;43896;48.178;11.578;2023-12-07T13:00:02;96042.44;;;5.49;39.22